createdAt,value
2018-09-12T00:00:27.886Z,100.00
2018-09-12T00:02:57.551Z,100.00
2018-09-12T00:05:27.510Z,100.00
2018-09-12T00:07:57.039Z,100.00
2018-09-12T00:10:26.785Z,100.00
2018-09-12T00:12:56.905Z,100.00
2018-09-12T00:15:26.507Z,100.00
2018-09-12T00:17:56.518Z,100.00
2018-09-12T00:20:26.173Z,100.00
2018-09-12T00:22:56.151Z,100.00
2018-09-12T00:25:25.709Z,100.00
2018-09-12T00:27:55.328Z,100.00
2018-09-12T00:30:25.201Z,100.00
2018-09-12T00:32:54.919Z,100.00
2018-09-12T00:35:24.815Z,100.00
2018-09-12T00:37:54.508Z,100.00
2018-09-12T00:40:24.148Z,100.00
2018-09-12T00:42:57.827Z,100.00
2018-09-12T00:45:32.657Z,100.00
2018-09-12T00:48:05.833Z,100.00
2018-09-12T00:50:40.284Z,100.00
2018-09-12T00:53:12.631Z,100.00
2018-09-12T00:55:42.542Z,100.00
2018-09-12T00:58:15.001Z,100.00
2018-09-12T01:00:46.878Z,100.00
2018-09-12T01:03:19.160Z,100.00
2018-09-12T01:05:50.854Z,100.00
2018-09-12T01:08:22.976Z,100.00
2018-09-12T01:10:57.089Z,100.00
2018-09-12T01:13:30.726Z,100.00
2018-09-12T01:16:03.217Z,100.00
2018-09-12T01:18:35.738Z,100.00
2018-09-12T01:21:11.280Z,100.00
2018-09-12T01:23:42.511Z,100.00
2018-09-12T01:26:14.830Z,100.00
2018-09-12T01:28:48.414Z,100.00
2018-09-12T01:31:18.660Z,100.00
2018-09-12T01:33:50.232Z,100.00
2018-09-12T01:36:23.482Z,100.00
2018-09-12T01:38:54.309Z,100.00
2018-09-12T01:41:25.377Z,100.00
2018-09-12T01:43:56.706Z,100.00
2018-09-12T01:46:26.679Z,100.00
2018-09-12T01:48:57.958Z,100.00
2018-09-12T01:51:31.849Z,100.00
2018-09-12T01:54:04.688Z,100.00
2018-09-12T01:56:36.283Z,100.00
2018-09-12T01:59:11.191Z,100.00
2018-09-12T02:01:46.699Z,100.00
2018-09-12T02:04:21.248Z,100.00
2018-09-12T02:06:55.323Z,100.00
2018-09-12T02:09:29.764Z,100.00
2018-09-12T02:12:03.036Z,100.00
2018-09-12T02:14:37.160Z,100.00
2018-09-12T02:17:09.084Z,100.00
2018-09-12T02:19:39.560Z,100.00
2018-09-12T02:22:15.287Z,100.00
2018-09-12T02:24:48.659Z,100.00
2018-09-12T02:27:20.035Z,100.00
2018-09-12T02:29:50.166Z,100.00
2018-09-12T02:32:23.350Z,100.00
2018-09-12T02:34:55.748Z,100.00
2018-09-12T02:37:28.449Z,100.00
2018-09-12T02:40:00.174Z,100.00
2018-09-12T02:42:29.872Z,100.00
2018-09-12T02:45:03.260Z,100.00
2018-09-12T02:47:36.767Z,100.00
2018-09-12T02:50:12.708Z,100.00
2018-09-12T02:52:46.485Z,100.00
2018-09-12T02:55:19.678Z,100.00
2018-09-12T02:57:51.682Z,100.00
2018-09-12T03:00:24.359Z,100.00
2018-09-12T03:02:58.579Z,100.00
2018-09-12T03:05:34.085Z,100.00
2018-09-12T03:08:06.045Z,100.00
2018-09-12T03:10:39.838Z,100.00
2018-09-12T03:13:14.268Z,100.00
2018-09-12T03:15:47.474Z,100.00
2018-09-12T03:18:21.330Z,100.00
2018-09-12T03:20:53.965Z,100.00
2018-09-12T03:23:24.797Z,100.00
2018-09-12T03:26:02.177Z,100.00
2018-09-12T03:28:34.192Z,100.00
2018-09-12T03:31:07.970Z,100.00
2018-09-12T03:33:41.701Z,100.00
2018-09-12T03:36:17.499Z,100.00
2018-09-12T03:38:47.697Z,100.00
2018-09-12T03:41:22.020Z,100.00
2018-09-12T03:43:55.895Z,100.00
2018-09-12T03:46:30.427Z,100.00
2018-09-12T03:49:04.420Z,100.00
2018-09-12T03:51:39.379Z,100.00
2018-09-12T03:54:12.172Z,100.00
2018-09-12T03:56:42.880Z,100.00
2018-09-12T03:59:13.013Z,100.00
2018-09-12T04:01:47.817Z,100.00
2018-09-12T04:04:21.435Z,100.00
2018-09-12T04:06:56.485Z,100.00
2018-09-12T04:09:28.946Z,100.00
2018-09-12T04:11:58.678Z,100.00
2018-09-12T04:14:32.302Z,100.00
2018-09-12T04:17:02.992Z,100.00
2018-09-12T04:19:36.735Z,100.00
2018-09-12T04:22:06.403Z,100.00
2018-09-12T04:24:40.771Z,100.00
2018-09-12T04:27:11.054Z,100.00
2018-09-12T04:29:44.332Z,100.00
2018-09-12T04:32:19.222Z,100.00
2018-09-12T04:34:52.788Z,100.00
2018-09-12T04:37:28.725Z,100.00
2018-09-12T04:40:14.046Z,100.00
2018-09-12T04:42:44.968Z,100.00
2018-09-12T04:45:14.639Z,100.00
2018-09-12T04:47:46.097Z,100.00
2018-09-12T04:50:21.806Z,100.00
2018-09-12T04:52:53.802Z,100.00
2018-09-12T04:55:27.390Z,100.00
2018-09-12T04:57:58.499Z,100.00
2018-09-12T05:00:28.557Z,100.00
2018-09-12T05:02:58.358Z,100.00
2018-09-12T05:05:33.291Z,100.00
2018-09-12T05:08:05.753Z,100.00
2018-09-12T05:10:35.971Z,100.00
2018-09-12T05:13:07.277Z,100.00
2018-09-12T05:15:38.099Z,100.00
2018-09-12T05:18:08.364Z,100.00
2018-09-12T05:20:41.858Z,100.00
2018-09-12T05:23:14.503Z,100.00
2018-09-12T05:25:47.760Z,100.00
2018-09-12T05:28:20.258Z,100.00
2018-09-12T05:30:52.100Z,100.00
2018-09-12T05:33:27.185Z,100.00
2018-09-12T05:36:01.320Z,100.00
2018-09-12T05:38:31.748Z,100.00
2018-09-12T05:41:02.076Z,100.00
2018-09-12T05:43:33.452Z,100.00
2018-09-12T05:46:06.528Z,100.00
2018-09-12T05:48:40.171Z,100.00
2018-09-12T05:51:15.121Z,100.00
2018-09-12T05:53:45.614Z,100.00
2018-09-12T05:56:15.523Z,100.00
2018-09-12T05:58:44.898Z,100.00
2018-09-12T06:01:14.277Z,100.00
2018-09-12T06:03:44.348Z,100.00
2018-09-12T06:06:13.668Z,100.00
2018-09-12T06:08:43.038Z,100.00
2018-09-12T06:11:14.109Z,100.00
2018-09-12T06:13:43.514Z,100.00
2018-09-12T06:16:12.763Z,100.00
2018-09-12T06:18:42.167Z,100.00
2018-09-12T06:21:11.461Z,100.00
2018-09-12T06:23:40.847Z,100.00
2018-09-12T06:26:10.783Z,100.00
2018-09-12T06:28:40.102Z,100.00
2018-09-12T06:31:09.409Z,100.00
2018-09-12T06:33:39.400Z,100.00
2018-09-12T06:36:08.831Z,100.00
2018-09-12T06:38:38.315Z,100.00
2018-09-12T06:41:09.311Z,100.00
2018-09-12T06:43:39.627Z,100.00
2018-09-12T06:46:08.982Z,100.00
2018-09-12T06:48:38.967Z,100.00
2018-09-12T06:51:08.395Z,100.00
2018-09-12T06:53:37.940Z,100.00
2018-09-12T06:56:08.327Z,100.00
2018-09-12T06:58:37.586Z,100.00
2018-09-12T07:01:07.505Z,100.00
2018-09-12T07:03:36.901Z,100.00
2018-09-12T07:06:06.201Z,100.00
2018-09-12T07:08:35.674Z,100.00
2018-09-12T07:11:05.718Z,100.00
2018-09-12T07:13:35.005Z,100.00
2018-09-12T07:16:04.424Z,100.00
2018-09-12T07:18:33.890Z,100.00
2018-09-12T07:21:04.056Z,100.00
2018-09-12T07:23:33.450Z,100.00
2018-09-12T07:26:02.939Z,100.00
2018-09-12T07:28:32.407Z,100.00
2018-09-12T07:31:01.823Z,100.00
2018-09-12T07:33:31.321Z,100.00
2018-09-12T07:36:00.858Z,100.00
2018-09-12T07:38:30.563Z,100.00
2018-09-12T07:40:59.974Z,100.00
2018-09-12T07:43:29.354Z,100.00
2018-09-12T07:45:58.902Z,100.00
2018-09-12T07:48:28.483Z,100.00
2018-09-12T07:50:58.009Z,100.00
2018-09-12T07:53:27.527Z,100.00
2018-09-12T07:55:57.831Z,100.00
2018-09-12T07:58:27.416Z,100.00
2018-09-12T08:00:57.048Z,100.00
2018-09-12T08:03:26.601Z,100.00
2018-09-12T08:05:56.272Z,100.00
2018-09-12T08:08:25.841Z,100.00
2018-09-12T08:10:56.528Z,100.00
2018-09-12T08:13:26.037Z,100.00
2018-09-12T08:15:55.374Z,100.00
2018-09-12T08:18:24.796Z,99.96
2018-09-12T08:20:54.419Z,99.79
2018-09-12T08:23:24.299Z,100.00
2018-09-12T08:25:53.911Z,100.00
2018-09-12T08:28:23.371Z,97.91
2018-09-12T08:30:54.874Z,97.01
2018-09-12T08:33:24.636Z,96.07
2018-09-12T08:35:54.088Z,96.65
2018-09-12T08:38:23.639Z,96.18
2018-09-12T08:40:53.009Z,95.66
2018-09-12T08:43:22.804Z,95.57
2018-09-12T08:45:52.294Z,95.37
2018-09-12T08:48:21.807Z,96.02
2018-09-12T08:50:52.140Z,96.02
2018-09-12T08:53:21.865Z,96.18
2018-09-12T08:55:51.315Z,95.81
2018-09-12T08:58:20.685Z,95.43
2018-09-12T09:00:49.987Z,95.28
2018-09-12T09:03:20.333Z,95.04
2018-09-12T09:05:50.601Z,95.51
2018-09-12T09:08:19.896Z,95.19
2018-09-12T09:10:49.288Z,96.25
2018-09-12T09:13:19.626Z,95.64
2018-09-12T09:15:48.947Z,96.24
2018-09-12T09:18:18.340Z,95.44
2018-09-12T09:20:47.588Z,95.50
2018-09-12T09:23:16.874Z,95.30
2018-09-12T09:25:46.227Z,95.74
2018-09-12T09:28:15.518Z,95.67
2018-09-12T09:30:44.819Z,95.65
2018-09-12T09:33:14.327Z,96.21
2018-09-12T09:35:43.751Z,96.20
2018-09-12T09:38:12.841Z,95.72
2018-09-12T09:40:42.642Z,96.26
2018-09-12T09:43:11.977Z,96.01
2018-09-12T09:45:41.346Z,95.59
2018-09-12T09:48:10.694Z,96.25
2018-09-12T09:50:39.825Z,96.71
2018-09-12T09:53:09.126Z,97.33
2018-09-12T09:55:38.573Z,98.13
2018-09-12T09:58:07.887Z,98.58
2018-09-12T10:00:43.866Z,98.23
2018-09-12T10:03:18.309Z,99.04
2018-09-12T10:05:52.973Z,99.11
2018-09-12T10:08:27.706Z,100.00
2018-09-12T10:10:57.906Z,100.00
2018-09-12T10:13:27.412Z,99.88
2018-09-12T10:15:57.430Z,100.00
2018-09-12T10:18:26.937Z,100.00
2018-09-12T10:20:56.442Z,100.00
2018-09-12T10:23:26.283Z,100.00
2018-09-12T10:25:56.505Z,99.16
2018-09-12T10:28:26.356Z,99.00
2018-09-12T10:30:55.801Z,98.75
2018-09-12T10:33:25.984Z,99.63
2018-09-12T10:35:55.465Z,98.40
2018-09-12T10:38:24.823Z,97.55
2018-09-12T10:40:54.864Z,97.73
2018-09-12T10:43:24.358Z,96.57
2018-09-12T10:45:53.744Z,96.09
2018-09-12T10:48:24.291Z,95.49
2018-09-12T10:50:54.473Z,95.49
2018-09-12T10:53:24.197Z,95.13
2018-09-12T10:55:55.449Z,95.00
2018-09-12T10:58:24.921Z,94.19
2018-09-12T11:00:54.478Z,93.64
2018-09-12T11:03:24.975Z,92.41
2018-09-12T11:05:54.533Z,90.77
2018-09-12T11:08:24.275Z,91.33
2018-09-12T11:10:54.240Z,91.91
2018-09-12T11:13:23.606Z,92.27
2018-09-12T11:15:53.237Z,89.71
2018-09-12T11:18:22.802Z,87.44
2018-09-12T11:20:52.758Z,87.84
2018-09-12T11:23:22.178Z,87.13
2018-09-12T11:25:52.259Z,86.46
2018-09-12T11:28:21.605Z,85.56
2018-09-12T11:30:50.973Z,84.26
2018-09-12T11:33:20.248Z,86.16
2018-09-12T11:35:49.528Z,85.34
2018-09-12T11:38:19.110Z,86.00
2018-09-12T11:40:50.309Z,86.84
2018-09-12T11:43:20.099Z,87.93
2018-09-12T11:45:49.413Z,86.94
2018-09-12T11:48:18.657Z,87.42
2018-09-12T11:50:48.021Z,87.70
2018-09-12T11:53:17.244Z,87.44
2018-09-12T11:55:47.414Z,87.40
2018-09-12T11:58:16.777Z,87.46
2018-09-12T12:00:46.106Z,89.38
2018-09-12T12:03:16.152Z,89.01
2018-09-12T12:05:46.000Z,87.11
2018-09-12T12:08:15.304Z,86.26
2018-09-12T12:10:45.312Z,84.77
2018-09-12T12:13:14.551Z,84.12
2018-09-12T12:15:43.930Z,83.40
2018-09-12T12:18:17.315Z,82.79
2018-09-12T12:20:46.597Z,82.22
2018-09-12T12:23:15.934Z,83.01
2018-09-12T12:25:46.850Z,82.67
2018-09-12T12:28:16.231Z,82.95
2018-09-12T12:30:45.861Z,82.27
2018-09-12T12:33:15.674Z,82.84
2018-09-12T12:35:44.898Z,83.64
2018-09-12T12:38:14.141Z,82.99
2018-09-12T12:40:43.478Z,82.84
2018-09-12T12:43:12.875Z,81.20
2018-09-12T12:45:42.195Z,80.61
2018-09-12T12:48:12.382Z,77.63
2018-09-12T12:50:41.605Z,76.97
2018-09-12T12:53:10.869Z,76.14
2018-09-12T12:55:41.096Z,74.07
2018-09-12T12:58:10.313Z,73.99
2018-09-12T13:00:39.541Z,72.45
2018-09-12T13:03:09.465Z,72.05
2018-09-12T13:05:38.810Z,72.98
2018-09-12T13:08:08.233Z,73.61
2018-09-12T13:10:38.332Z,74.07
2018-09-12T13:13:07.690Z,75.76
2018-09-12T13:15:37.062Z,76.29
2018-09-12T13:18:07.469Z,76.70
2018-09-12T13:20:36.785Z,77.13
2018-09-12T13:23:06.193Z,78.08
2018-09-12T13:25:35.910Z,77.76
2018-09-12T13:28:06.124Z,76.27
2018-09-12T13:30:35.482Z,76.28
2018-09-12T13:33:05.140Z,76.67
2018-09-12T13:35:34.423Z,77.12
2018-09-12T13:38:03.753Z,75.94
2018-09-12T13:40:33.453Z,76.13
2018-09-12T13:43:02.907Z,77.24
2018-09-12T13:45:32.677Z,76.60
2018-09-12T13:48:02.260Z,74.42
2018-09-12T13:50:31.673Z,75.93
2018-09-12T13:53:01.198Z,75.71
2018-09-12T13:55:30.629Z,75.49
2018-09-12T13:58:00.169Z,75.65
2018-09-12T14:00:31.978Z,76.22
2018-09-12T14:03:03.071Z,76.22
2018-09-12T14:05:33.235Z,76.63
2018-09-12T14:08:02.687Z,75.50
2018-09-12T14:10:32.201Z,76.09
2018-09-12T14:13:01.733Z,75.44
2018-09-12T14:15:31.346Z,75.56
2018-09-12T14:18:00.980Z,76.93
2018-09-12T14:20:30.349Z,76.63
2018-09-12T14:22:59.988Z,76.37
2018-09-12T14:25:31.483Z,76.97
2018-09-12T14:28:00.809Z,77.09
2018-09-12T14:30:30.345Z,77.56
2018-09-12T14:32:59.787Z,77.35
2018-09-12T14:35:29.538Z,76.97
2018-09-12T14:37:59.220Z,77.97
2018-09-12T14:40:30.473Z,76.71
2018-09-12T14:42:59.933Z,76.47
2018-09-12T14:45:29.442Z,76.51
2018-09-12T14:47:59.427Z,76.10
2018-09-12T14:50:29.303Z,75.77
2018-09-12T14:52:58.605Z,75.94
2018-09-12T14:55:28.337Z,76.19
2018-09-12T14:57:57.962Z,76.48
2018-09-12T15:00:29.478Z,75.41
2018-09-12T15:02:59.634Z,76.02
2018-09-12T15:05:29.211Z,73.85
2018-09-12T15:07:58.890Z,72.67
2018-09-12T15:10:28.579Z,72.57
2018-09-12T15:13:02.331Z,71.97
2018-09-12T15:15:31.937Z,72.34
2018-09-12T15:18:01.707Z,72.14
2018-09-12T15:20:32.004Z,71.98
2018-09-12T15:23:01.408Z,71.68
2018-09-12T15:25:30.810Z,71.32
2018-09-12T15:28:00.198Z,72.27
2018-09-12T15:30:29.805Z,71.89
2018-09-12T15:32:59.205Z,72.57
2018-09-12T15:35:29.006Z,72.42
2018-09-12T15:37:58.833Z,72.54
2018-09-12T15:40:29.547Z,73.49
2018-09-12T15:43:13.469Z,73.06
2018-09-12T15:45:43.183Z,73.12
2018-09-12T15:48:12.649Z,73.17
2018-09-12T15:50:42.541Z,72.98
2018-09-12T15:53:12.081Z,73.52
2018-09-12T15:55:41.771Z,73.13
2018-09-12T15:58:11.098Z,73.62
2018-09-12T16:00:40.332Z,73.37
2018-09-12T16:03:10.201Z,74.39
2018-09-12T16:05:39.544Z,73.94
2018-09-12T16:08:08.825Z,73.89
2018-09-12T16:10:39.393Z,73.86
2018-09-12T16:13:09.087Z,74.42
2018-09-12T16:15:38.371Z,74.63
2018-09-12T16:18:07.721Z,74.91
2018-09-12T16:20:36.989Z,74.92
2018-09-12T16:23:06.414Z,74.66
2018-09-12T16:25:35.894Z,75.65
2018-09-12T16:28:05.269Z,75.83
2018-09-12T16:30:34.569Z,76.05
2018-09-12T16:33:04.148Z,76.39
2018-09-12T16:35:33.419Z,75.98
2018-09-12T16:38:03.054Z,75.93
2018-09-12T16:40:32.581Z,76.16
2018-09-12T16:43:02.211Z,76.06
2018-09-12T16:45:31.720Z,75.64
2018-09-12T16:48:01.674Z,75.91
2018-09-12T16:50:31.332Z,76.19
2018-09-12T16:53:00.878Z,76.54
2018-09-12T16:55:30.444Z,76.51
2018-09-12T16:57:59.996Z,77.02
2018-09-12T17:00:30.177Z,76.92
2018-09-12T17:02:59.884Z,77.21
2018-09-12T17:05:29.677Z,77.52
2018-09-12T17:07:59.608Z,77.42
2018-09-12T17:10:29.622Z,77.81
2018-09-12T17:12:59.545Z,78.16
2018-09-12T17:15:29.405Z,78.42
2018-09-12T17:17:59.329Z,78.58
2018-09-12T17:20:31.166Z,78.87
2018-09-12T17:23:00.764Z,79.20
2018-09-12T17:25:30.434Z,79.26
2018-09-12T17:28:00.205Z,79.72
2018-09-12T17:30:29.659Z,80.24
2018-09-12T17:32:59.377Z,80.54
2018-09-12T17:35:29.537Z,80.94
2018-09-12T17:37:59.464Z,81.25
2018-09-12T17:40:29.013Z,81.47
2018-09-12T17:42:58.822Z,81.54
2018-09-12T17:45:28.492Z,81.95
2018-09-12T17:47:57.984Z,82.00
2018-09-12T17:50:27.624Z,82.65
2018-09-12T17:52:58.500Z,82.64
2018-09-12T17:55:28.492Z,82.83
2018-09-12T17:57:58.196Z,82.88
2018-09-12T18:00:28.210Z,83.54
2018-09-12T18:02:59.225Z,83.54
2018-09-12T18:05:29.127Z,83.93
2018-09-12T18:07:58.949Z,84.34
2018-09-12T18:10:28.898Z,84.36
2018-09-12T18:12:59.051Z,84.53
2018-09-12T18:15:28.928Z,84.61
2018-09-12T18:17:58.825Z,84.85
2018-09-12T18:20:28.783Z,85.41
2018-09-12T18:22:58.501Z,85.64
2018-09-12T18:25:29.309Z,85.96
2018-09-12T18:28:00.036Z,85.74
2018-09-12T18:30:31.281Z,85.75
2018-09-12T18:33:00.924Z,85.71
2018-09-12T18:35:31.301Z,85.66
2018-09-12T18:38:01.090Z,85.93
2018-09-12T18:40:31.305Z,86.21
2018-09-12T18:43:01.525Z,86.62
2018-09-12T18:45:31.043Z,86.67
2018-09-12T18:48:00.421Z,86.92
2018-09-12T18:50:29.942Z,87.47
2018-09-12T18:53:00.022Z,87.79
2018-09-12T18:55:29.583Z,87.80
2018-09-12T18:57:59.438Z,88.11
2018-09-12T19:00:29.073Z,88.44
2018-09-12T19:02:59.936Z,88.30
2018-09-12T19:05:31.099Z,88.44
2018-09-12T19:08:00.819Z,88.76
2018-09-12T19:10:30.530Z,89.00
2018-09-12T19:13:01.059Z,88.85
2018-09-12T19:15:31.630Z,89.25
2018-09-12T19:18:01.685Z,89.36
2018-09-12T19:20:31.732Z,89.73
2018-09-12T19:23:01.339Z,89.73
2018-09-12T19:25:31.145Z,89.98
2018-09-12T19:28:00.825Z,90.82
2018-09-12T19:30:30.980Z,90.88
2018-09-12T19:33:00.620Z,90.77
2018-09-12T19:35:30.447Z,91.84
2018-09-12T19:38:00.132Z,91.70
2018-09-12T19:40:30.122Z,91.71
2018-09-12T19:42:59.878Z,92.85
2018-09-12T19:45:29.536Z,92.23
2018-09-12T19:47:59.200Z,93.27
2018-09-12T19:50:29.099Z,93.12
2018-09-12T19:52:59.137Z,93.97
2018-09-12T19:55:28.763Z,94.30
2018-09-12T19:57:58.956Z,94.08
2018-09-12T20:00:28.936Z,94.44
2018-09-12T20:02:58.528Z,93.75
2018-09-12T20:05:28.193Z,93.94
2018-09-12T20:07:57.888Z,94.61
2018-09-12T20:10:28.511Z,94.65
2018-09-12T20:12:58.451Z,94.37
2018-09-12T20:15:28.214Z,94.43
2018-09-12T20:17:58.884Z,95.04
2018-09-12T20:20:28.653Z,95.29
2018-09-12T20:22:58.745Z,95.54
2018-09-12T20:25:30.225Z,95.31
2018-09-12T20:27:59.800Z,94.82
2018-09-12T20:30:29.582Z,95.44
2018-09-12T20:33:00.701Z,95.23
2018-09-12T20:35:30.761Z,94.54
2018-09-12T20:38:00.396Z,94.79
2018-09-12T20:40:30.351Z,94.60
2018-09-12T20:43:00.084Z,94.72
2018-09-12T20:45:29.952Z,95.25
2018-09-12T20:47:59.506Z,95.26
2018-09-12T20:50:29.092Z,95.09
2018-09-12T20:52:59.000Z,94.65
2018-09-12T20:55:29.713Z,95.40
2018-09-12T20:58:00.357Z,94.62
2018-09-12T21:00:30.069Z,95.57
2018-09-12T21:02:59.766Z,95.94
2018-09-12T21:05:30.083Z,95.89
2018-09-12T21:07:59.733Z,95.66
2018-09-12T21:10:30.431Z,95.92
2018-09-12T21:13:01.059Z,96.20
2018-09-12T21:15:30.482Z,96.22
2018-09-12T21:18:01.685Z,96.74
2018-09-12T21:20:31.009Z,97.13
2018-09-12T21:23:00.562Z,96.53
2018-09-12T21:25:30.729Z,97.03
2018-09-12T21:28:01.260Z,97.74
2018-09-12T21:30:30.913Z,97.53
2018-09-12T21:33:00.631Z,97.33
2018-09-12T21:35:30.122Z,97.35
2018-09-12T21:38:06.162Z,97.07
2018-09-12T21:40:35.687Z,97.85
2018-09-12T21:43:05.048Z,98.06
2018-09-12T21:45:34.655Z,98.45
2018-09-12T21:48:04.031Z,98.87
2018-09-12T21:50:34.026Z,98.55
2018-09-12T21:53:05.049Z,98.61
2018-09-12T21:55:35.083Z,98.14
2018-09-12T21:58:04.749Z,98.13
2018-09-12T22:00:34.607Z,98.65
2018-09-12T22:03:03.991Z,97.77
2018-09-12T22:05:33.408Z,97.33
2018-09-12T22:08:03.482Z,97.76
2018-09-12T22:10:32.883Z,97.70
2018-09-12T22:13:02.326Z,97.95
2018-09-12T22:15:32.205Z,97.99
2018-09-12T22:18:03.321Z,98.82
2018-09-12T22:20:33.488Z,98.57
2018-09-12T22:23:03.030Z,98.24
2018-09-12T22:25:32.585Z,98.49
2018-09-12T22:28:02.924Z,97.85
2018-09-12T22:30:32.252Z,97.80
2018-09-12T22:33:01.813Z,98.22
2018-09-12T22:35:31.432Z,97.90
2018-09-12T22:38:00.941Z,97.66
2018-09-12T22:40:30.630Z,97.84
2018-09-12T22:43:00.204Z,98.20
2018-09-12T22:45:29.761Z,98.09
2018-09-12T22:47:59.303Z,98.09
2018-09-12T22:50:29.202Z,98.77
2018-09-12T22:52:58.668Z,99.00
2018-09-12T22:55:28.076Z,98.78
2018-09-12T22:57:57.849Z,98.26
2018-09-12T23:00:27.619Z,98.97
2018-09-12T23:02:57.144Z,98.30
2018-09-12T23:05:27.448Z,98.59
2018-09-12T23:07:56.874Z,98.68
2018-09-12T23:10:26.378Z,97.98
2018-09-12T23:12:55.907Z,98.49
2018-09-12T23:15:27.385Z,99.09
2018-09-12T23:17:57.158Z,99.29
2018-09-12T23:20:26.662Z,98.81
2018-09-12T23:22:56.105Z,99.38
2018-09-12T23:25:25.484Z,99.14
2018-09-12T23:29:19.247Z,99.49
2018-09-12T23:31:48.668Z,99.79
2018-09-12T23:34:18.447Z,99.67
2018-09-12T23:36:47.812Z,100.00
2018-09-12T23:39:17.099Z,100.00
2018-09-12T23:41:46.409Z,100.00
2018-09-12T23:44:15.738Z,100.00
2018-09-12T23:46:45.033Z,100.00
2018-09-12T23:49:14.328Z,100.00
2018-09-12T23:51:44.446Z,100.00
2018-09-12T23:54:13.780Z,100.00
2018-09-12T23:56:43.133Z,100.00
2018-09-12T23:59:12.347Z,100.00
